Time;durP1;ratioP1;P1;durP2;ratioP2;P2;SDS_P1;SDS_P2;PMS_P1;PMS_P2;Temp;Humidity;BMP_temperature;BMP_pressure;BME280_temperature;BME280_humidity;BME280_pressure;Samples;Min_cycle;Max_cycle;Signal;HPM_P1;HPM_P2
2022/04/14 00:01:52;;;;;;;;;;;20.70;45.20;;;;;;5068270;28;20006;-50
2022/04/14 00:04:19;;;;;;;;;;;20.70;45.20;;;;;;5067937;28;19986;-52
2022/04/14 00:06:48;;;;;;;;;;;20.70;45.20;;;;;;5064643;28;19921;-52
2022/04/14 00:09:14;;;;;;;;;;;20.70;45.20;;;;;;5066822;28;19936;-52
2022/04/14 00:11:41;;;;;;;;;;;20.70;45.30;;;;;;5070070;28;20014;-52
2022/04/14 00:14:08;;;;;;;;;;;20.70;45.20;;;;;;5070085;28;19924;-53
2022/04/14 00:16:35;;;;;;;;;;;20.70;45.30;;;;;;5068492;28;20003;-52
2022/04/14 00:19:02;;;;;;;;;;;20.70;45.30;;;;;;5086075;28;19920;-49
2022/04/14 00:21:29;;;;;;;;;;;20.70;45.30;;;;;;5070196;28;19928;-56
2022/04/14 00:23:57;;;;;;;;;;;20.70;45.30;;;;;;5079979;28;19939;-51
2022/04/14 00:26:24;;;;;;;;;;;20.70;45.30;;;;;;5067645;28;19920;-52
2022/04/14 00:28:50;;;;;;;;;;;20.70;45.30;;;;;;5076610;28;20336;-54
2022/04/14 00:31:17;;;;;;;;;;;20.70;45.30;;;;;;5067013;28;20002;-51
2022/04/14 00:33:44;;;;;;;;;;;20.70;45.30;;;;;;5088028;28;19927;-50
2022/04/14 00:36:10;;;;;;;;;;;20.70;45.30;;;;;;5067817;28;19924;-52
2022/04/14 00:38:37;;;;;;;;;;;20.70;45.40;;;;;;5069625;28;20359;-54
2022/04/14 00:41:06;;;;;;;;;;;20.70;45.40;;;;;;5068368;28;20250;-50
2022/04/14 00:43:33;;;;;;;;;;;20.70;45.40;;;;;;5071214;28;20269;-49
2022/04/14 00:46:00;;;;;;;;;;;20.70;45.40;;;;;;5067027;28;19920;-49
2022/04/14 00:48:27;;;;;;;;;;;20.70;45.40;;;;;;5068306;28;19960;-55
2022/04/14 00:50:54;;;;;;;;;;;20.70;45.40;;;;;;5069284;28;19920;-49
2022/04/14 00:53:21;;;;;;;;;;;20.70;45.50;;;;;;5063333;28;19933;-48
2022/04/14 00:55:47;;;;;;;;;;;20.70;45.50;;;;;;5069367;28;20392;-54
2022/04/14 00:58:16;;;;;;;;;;;20.70;45.50;;;;;;5067534;28;19931;-53
2022/04/14 01:00:43;;;;;;;;;;;20.70;45.50;;;;;;5087313;28;19920;-54
2022/04/14 01:03:09;;;;;;;;;;;20.70;45.50;;;;;;5069510;28;19921;-47
2022/04/14 01:05:37;;;;;;;;;;;20.70;45.50;;;;;;5070228;28;19981;-49
2022/04/14 01:08:05;;;;;;;;;;;20.70;45.50;;;;;;5074584;28;19935;-49
2022/04/14 01:10:32;;;;;;;;;;;20.70;45.50;;;;;;5089298;28;19920;-50
2022/04/14 01:12:58;;;;;;;;;;;20.70;45.50;;;;;;5072593;28;19936;-51
2022/04/14 01:15:26;;;;;;;;;;;20.70;45.60;;;;;;5071137;28;20341;-52
2022/04/14 01:17:53;;;;;;;;;;;20.70;45.50;;;;;;5070772;28;19920;-51
2022/04/14 01:20:20;;;;;;;;;;;20.70;46.20;;;;;;5070884;28;19932;-52
2022/04/14 01:22:48;;;;;;;;;;;20.70;45.60;;;;;;5070266;28;19925;-49
2022/04/14 01:25:16;;;;;;;;;;;20.70;45.60;;;;;;5086444;28;20354;-54
2022/04/14 01:27:43;;;;;;;;;;;20.70;45.60;;;;;;5088404;28;19967;-54
2022/04/14 01:30:10;;;;;;;;;;;20.70;45.60;;;;;;5071424;28;20023;-53
2022/04/14 01:32:37;;;;;;;;;;;20.70;45.60;;;;;;5069115;28;20369;-53
2022/04/14 01:35:06;;;;;;;;;;;20.70;45.60;;;;;;5070718;28;19921;-58
2022/04/14 01:37:32;;;;;;;;;;;20.70;45.60;;;;;;5070961;28;19920;-57
2022/04/14 01:39:59;;;;;;;;;;;20.70;45.60;;;;;;5071314;28;19974;-52
2022/04/14 01:42:27;;;;;;;;;;;20.70;45.60;;;;;;5071742;28;20032;-51
2022/04/14 01:44:54;;;;;;;;;;;20.60;45.50;;;;;;5073405;28;19921;-52
2022/04/14 01:47:21;;;;;;;;;;;20.70;45.60;;;;;;5085641;28;19924;-54
2022/04/14 01:49:48;;;;;;;;;;;20.70;45.60;;;;;;5067619;28;20007;-54
2022/04/14 01:52:15;;;;;;;;;;;20.60;45.50;;;;;;5070625;28;19921;-54
2022/04/14 01:54:42;;;;;;;;;;;20.60;45.50;;;;;;5086880;28;20343;-54
2022/04/14 01:57:09;;;;;;;;;;;20.60;45.60;;;;;;5065179;28;20024;-52
2022/04/14 01:59:37;;;;;;;;;;;20.60;45.60;;;;;;5070914;28;20011;-56
2022/04/14 02:02:04;;;;;;;;;;;20.60;45.60;;;;;;5084060;28;20372;-52
2022/04/14 02:04:30;;;;;;;;;;;20.60;45.60;;;;;;5084536;28;19924;-56
2022/04/14 02:06:57;;;;;;;;;;;20.60;45.60;;;;;;5067150;28;20444;-52
2022/04/14 02:09:24;;;;;;;;;;;20.60;45.60;;;;;;5084753;28;20156;-53
2022/04/14 02:11:51;;;;;;;;;;;20.60;45.60;;;;;;5070281;28;19928;-53
2022/04/14 02:14:17;;;;;;;;;;;20.60;45.60;;;;;;5066860;28;19920;-57
2022/04/14 02:16:46;;;;;;;;;;;20.60;45.60;;;;;;5073193;28;19943;-51
2022/04/14 02:19:12;;;;;;;;;;;20.60;45.60;;;;;;5068543;28;19943;-57
2022/04/14 02:21:39;;;;;;;;;;;20.60;45.60;;;;;;5065634;28;20330;-55
2022/04/14 02:24:06;;;;;;;;;;;20.60;45.60;;;;;;5067129;28;19975;-52
2022/04/14 02:26:33;;;;;;;;;;;20.60;45.60;;;;;;5067360;28;19921;-53
2022/04/14 02:29:00;;;;;;;;;;;20.60;45.60;;;;;;5065674;28;19921;-52
2022/04/14 02:31:27;;;;;;;;;;;20.60;45.60;;;;;;5085623;28;19974;-50
2022/04/14 02:33:55;;;;;;;;;;;20.60;45.60;;;;;;5081472;28;19925;-54
2022/04/14 02:36:21;;;;;;;;;;;20.60;45.60;;;;;;5068431;28;20019;-52
2022/04/14 02:38:48;;;;;;;;;;;20.60;45.60;;;;;;5069896;28;19921;-55
2022/04/14 02:41:15;;;;;;;;;;;20.60;45.60;;;;;;5083622;28;19978;-56
2022/04/14 02:43:42;;;;;;;;;;;20.60;45.60;;;;;;5089305;28;19924;-52
2022/04/14 02:46:09;;;;;;;;;;;20.60;45.60;;;;;;5066346;28;19933;-51
2022/04/14 02:48:35;;;;;;;;;;;20.60;45.60;;;;;;5071073;28;19925;-56
2022/04/14 02:51:04;;;;;;;;;;;20.60;45.60;;;;;;5070375;28;19928;-51
2022/04/14 02:53:31;;;;;;;;;;;20.60;45.60;;;;;;5070192;28;20341;-50
2022/04/14 02:55:58;;;;;;;;;;;20.60;45.70;;;;;;5070980;28;20383;-57
2022/04/14 02:58:24;;;;;;;;;;;20.70;45.70;;;;;;5086302;28;19989;-53
2022/04/14 03:00:51;;;;;;;;;;;20.60;45.70;;;;;;5070088;28;19939;-56
2022/04/14 03:03:19;;;;;;;;;;;20.60;45.70;;;;;;5071854;28;19970;-55
2022/04/14 03:05:46;;;;;;;;;;;20.60;45.70;;;;;;5070157;28;19920;-50
2022/04/14 03:08:14;;;;;;;;;;;20.60;45.70;;;;;;5068752;28;20262;-56
2022/04/14 03:10:41;;;;;;;;;;;20.60;45.70;;;;;;5088305;28;19940;-54
2022/04/14 03:13:08;;;;;;;;;;;20.60;45.70;;;;;;5064653;28;19920;-51
2022/04/14 03:15:35;;;;;;;;;;;20.60;45.70;;;;;;5069573;28;19964;-60
2022/04/14 03:18:02;;;;;;;;;;;20.60;45.70;;;;;;5071931;28;19924;-54
2022/04/14 03:20:29;;;;;;;;;;;20.60;45.70;;;;;;5067557;28;20019;-54
2022/04/14 03:22:56;;;;;;;;;;;20.60;45.70;;;;;;5069060;28;19924;-56
2022/04/14 03:25:24;;;;;;;;;;;20.60;45.70;;;;;;5068707;28;20423;-55
2022/04/14 03:27:51;;;;;;;;;;;20.60;45.70;;;;;;5070273;28;19974;-52
2022/04/14 03:30:18;;;;;;;;;;;20.60;45.70;;;;;;5067760;28;19925;-56
2022/04/14 03:32:45;;;;;;;;;;;20.60;45.70;;;;;;5072864;28;19950;-52
2022/04/14 03:35:12;;;;;;;;;;;20.60;45.70;;;;;;5069633;28;20304;-54
2022/04/14 03:37:39;;;;;;;;;;;20.60;45.70;;;;;;5072465;28;19962;-55
2022/04/14 03:40:06;;;;;;;;;;;20.60;45.70;;;;;;5069280;28;19920;-56
2022/04/14 03:42:35;;;;;;;;;;;20.60;45.70;;;;;;5071431;28;19920;-55
2022/04/14 03:45:02;;;;;;;;;;;20.50;45.60;;;;;;5069680;28;20377;-52
2022/04/14 03:47:29;;;;;;;;;;;20.60;45.80;;;;;;5066634;28;20019;-51
2022/04/14 03:49:56;;;;;;;;;;;20.60;45.70;;;;;;5083239;28;19931;-53
2022/04/14 03:52:23;;;;;;;;;;;20.60;45.70;;;;;;5068753;28;19927;-51
2022/04/14 03:54:50;;;;;;;;;;;20.50;45.60;;;;;;5074728;28;19956;-53
2022/04/14 03:57:17;;;;;;;;;;;20.50;45.60;;;;;;5082899;28;19959;-52
2022/04/14 03:59:45;;;;;;;;;;;20.50;45.60;;;;;;5070541;28;20015;-53
2022/04/14 04:02:11;;;;;;;;;;;20.50;45.60;;;;;;5072707;28;20358;-50
2022/04/14 04:04:38;;;;;;;;;;;20.50;45.60;;;;;;5069249;28;20444;-50
2022/04/14 04:07:06;;;;;;;;;;;20.50;45.60;;;;;;5069622;28;19924;-52
2022/04/14 04:09:33;;;;;;;;;;;20.50;45.60;;;;;;5067252;28;19924;-58
2022/04/14 04:12:00;;;;;;;;;;;20.50;45.70;;;;;;5069131;28;19927;-64
2022/04/14 04:14:27;;;;;;;;;;;20.50;45.60;;;;;;5070291;28;20007;-54
2022/04/14 04:16:55;;;;;;;;;;;20.50;45.60;;;;;;5069946;28;19920;-55
2022/04/14 04:19:22;;;;;;;;;;;20.50;45.60;;;;;;5065642;28;20007;-52
2022/04/14 04:21:49;;;;;;;;;;;20.50;45.60;;;;;;5066661;28;19926;-53
2022/04/14 04:24:16;;;;;;;;;;;20.50;45.60;;;;;;5070248;28;20396;-57
2022/04/14 04:26:42;;;;;;;;;;;20.50;45.60;;;;;;5069292;28;20369;-54
2022/04/14 04:29:09;;;;;;;;;;;20.50;45.60;;;;;;5085976;28;19987;-56
2022/04/14 04:31:36;;;;;;;;;;;20.50;45.60;;;;;;5068450;28;20365;-54
2022/04/14 04:34:04;;;;;;;;;;;20.50;45.60;;;;;;5082798;28;20330;-51
2022/04/14 04:36:31;;;;;;;;;;;20.50;45.60;;;;;;5067691;28;19920;-53
2022/04/14 04:39:01;;;;;;;;;;;20.50;45.60;;;;;;5078866;28;20011;-51
2022/04/14 04:41:28;;;;;;;;;;;20.50;45.60;;;;;;5064856;28;20362;-56
2022/04/14 04:43:55;;;;;;;;;;;20.50;45.60;;;;;;5074121;28;20256;-53
2022/04/14 04:46:22;;;;;;;;;;;20.50;45.60;;;;;;5073920;28;19920;-52
2022/04/14 04:48:48;;;;;;;;;;;20.50;45.60;;;;;;5072282;28;19921;-57
2022/04/14 04:51:17;;;;;;;;;;;20.50;45.60;;;;;;5072394;28;20011;-53
2022/04/14 04:53:44;;;;;;;;;;;20.50;45.60;;;;;;5069340;28;19927;-51
2022/04/14 04:56:10;;;;;;;;;;;20.50;45.60;;;;;;5072566;28;19959;-54
2022/04/14 04:58:37;;;;;;;;;;;20.50;45.60;;;;;;5078999;28;20018;-56
2022/04/14 05:01:04;;;;;;;;;;;20.50;45.60;;;;;;5070927;28;20078;-55
2022/04/14 05:03:31;;;;;;;;;;;20.50;45.60;;;;;;5068198;28;19971;-54
2022/04/14 05:05:57;;;;;;;;;;;20.50;45.60;;;;;;5073215;28;19927;-54
2022/04/14 05:08:26;;;;;;;;;;;20.50;45.60;;;;;;5077172;28;19920;-54
2022/04/14 05:10:52;;;;;;;;;;;20.50;45.60;;;;;;5071392;28;19931;-53
2022/04/14 05:13:19;;;;;;;;;;;20.50;45.60;;;;;;5074274;28;19920;-50
2022/04/14 05:15:46;;;;;;;;;;;20.50;45.60;;;;;;5070853;28;19928;-55
2022/04/14 05:18:13;;;;;;;;;;;20.50;45.60;;;;;;5084634;28;19963;-50
2022/04/14 05:20:42;;;;;;;;;;;20.50;45.60;;;;;;5075630;28;20002;-58
2022/04/14 05:23:09;;;;;;;;;;;20.50;45.60;;;;;;5061016;28;19920;-55
2022/04/14 05:25:37;;;;;;;;;;;20.50;45.60;;;;;;5063286;28;19925;-53
2022/04/14 05:28:04;;;;;;;;;;;20.50;45.50;;;;;;5066513;28;19925;-51
2022/04/14 05:30:31;;;;;;;;;;;20.50;45.60;;;;;;5070370;28;20018;-51
2022/04/14 05:32:57;;;;;;;;;;;20.50;45.60;;;;;;5070951;28;19925;-58
2022/04/14 05:35:24;;;;;;;;;;;20.50;45.60;;;;;;5053650;28;19955;-50
2022/04/14 05:37:51;;;;;;;;;;;20.50;45.60;;;;;;5067234;28;20048;-51
2022/04/14 05:40:18;;;;;;;;;;;20.50;45.80;;;;;;5069706;28;19924;-54
2022/04/14 05:42:46;;;;;;;;;;;20.50;45.60;;;;;;5078700;28;20018;-54
2022/04/14 05:45:13;;;;;;;;;;;20.50;45.70;;;;;;5089855;28;20388;-58
2022/04/14 05:47:40;;;;;;;;;;;20.50;45.60;;;;;;5073498;28;19920;-54
2022/04/14 05:50:07;;;;;;;;;;;20.50;45.60;;;;;;5090937;28;19932;-55
2022/04/14 05:52:34;;;;;;;;;;;20.50;45.70;;;;;;5063786;28;19967;-54
2022/04/14 05:55:01;;;;;;;;;;;20.50;45.70;;;;;;5069144;28;19921;-56
2022/04/14 05:57:28;;;;;;;;;;;20.50;45.80;;;;;;5085088;28;19928;-56
2022/04/14 05:59:56;;;;;;;;;;;20.50;45.80;;;;;;5061429;28;19925;-55
2022/04/14 06:02:23;;;;;;;;;;;20.50;45.80;;;;;;5072392;28;19967;-54
2022/04/14 06:04:50;;;;;;;;;;;20.50;45.80;;;;;;5069059;28;19932;-54
2022/04/14 06:07:17;;;;;;;;;;;20.50;45.90;;;;;;5058162;28;19921;-54
2022/04/14 06:09:44;;;;;;;;;;;20.50;45.90;;;;;;5073357;28;20364;-52
2022/04/14 06:12:11;;;;;;;;;;;20.50;45.80;;;;;;5069708;28;19920;-57
2022/04/14 06:14:37;;;;;;;;;;;20.50;45.90;;;;;;5082710;28;19951;-56
2022/04/14 06:17:06;;;;;;;;;;;20.50;45.90;;;;;;5063545;28;19921;-52
2022/04/14 06:19:32;;;;;;;;;;;20.50;45.80;;;;;;5068509;28;19959;-52
2022/04/14 06:21:59;;;;;;;;;;;20.50;45.90;;;;;;5063066;28;19932;-54
2022/04/14 06:27:06;;;;;;;;;;;20.50;45.80;;;;;;5061809;28;20396;-52
2022/04/14 06:29:36;;;;;;;;;;;20.50;45.80;;;;;;5068362;28;19951;-51
2022/04/14 06:32:03;;;;;;;;;;;20.50;45.90;;;;;;5068214;28;19986;-57
2022/04/14 06:34:31;;;;;;;;;;;20.50;45.90;;;;;;5073235;28;20301;-51
2022/04/14 06:36:57;;;;;;;;;;;20.50;45.90;;;;;;5062833;28;20277;-52
2022/04/14 06:39:24;;;;;;;;;;;20.50;45.90;;;;;;5091191;28;19951;-58
2022/04/14 06:41:54;;;;;;;;;;;20.50;45.90;;;;;;5058715;28;19921;-55
2022/04/14 06:44:21;;;;;;;;;;;20.50;45.90;;;;;;5086457;28;19924;-52
2022/04/14 06:46:48;;;;;;;;;;;20.50;45.90;;;;;;5069039;28;20081;-53
2022/04/14 06:49:15;;;;;;;;;;;20.50;45.90;;;;;;5060207;28;19975;-54
2022/04/14 06:51:44;;;;;;;;;;;20.50;45.90;;;;;;5064869;28;19924;-56
2022/04/14 06:54:12;;;;;;;;;;;20.50;45.90;;;;;;5060421;28;20011;-53
2022/04/14 06:56:40;;;;;;;;;;;20.50;45.90;;;;;;5068593;28;19925;-54
2022/04/14 06:59:07;;;;;;;;;;;20.50;45.90;;;;;;5065133;28;19921;-52
2022/04/14 07:01:34;;;;;;;;;;;20.50;45.90;;;;;;5080463;28;19974;-54
2022/04/14 07:04:01;;;;;;;;;;;20.50;45.90;;;;;;5067429;28;20009;-51
2022/04/14 07:06:28;;;;;;;;;;;20.50;45.90;;;;;;5052513;28;20019;-55
2022/04/14 07:08:56;;;;;;;;;;;20.50;45.90;;;;;;5082493;28;19925;-55
2022/04/14 07:11:23;;;;;;;;;;;20.50;45.90;;;;;;5060412;28;19925;-53
2022/04/14 07:13:50;;;;;;;;;;;20.50;45.90;;;;;;5063544;28;19920;-54
2022/04/14 07:16:17;;;;;;;;;;;20.50;45.90;;;;;;5062658;28;20012;-51
2022/04/14 07:18:43;;;;;;;;;;;20.50;45.90;;;;;;5057767;28;20015;-52
2022/04/14 07:21:10;;;;;;;;;;;20.50;45.90;;;;;;5073842;28;20294;-52
2022/04/14 07:23:38;;;;;;;;;;;20.50;45.90;;;;;;5078048;28;19924;-53
2022/04/14 07:26:07;;;;;;;;;;;20.50;45.90;;;;;;5070161;28;20412;-52
2022/04/14 07:28:40;;;;;;;;;;;20.50;45.90;;;;;;5056500;28;20237;-52
2022/04/14 07:31:06;;;;;;;;;;;20.50;45.90;;;;;;5084486;28;20162;-55
2022/04/14 07:33:34;;;;;;;;;;;20.50;46.00;;;;;;5059739;28;19924;-55
2022/04/14 07:36:00;;;;;;;;;;;20.50;46.00;;;;;;5051631;28;20308;-52
2022/04/14 07:38:29;;;;;;;;;;;20.50;46.00;;;;;;5068122;28;19966;-55
2022/04/14 07:40:56;;;;;;;;;;;20.50;46.00;;;;;;5065008;28;20280;-51
2022/04/14 07:43:24;;;;;;;;;;;20.50;46.00;;;;;;5070306;28;19920;-53
2022/04/14 07:45:50;;;;;;;;;;;20.50;46.00;;;;;;5067176;28;20011;-53
2022/04/14 07:48:21;;;;;;;;;;;20.50;46.00;;;;;;5080633;28;20049;-52
2022/04/14 07:50:48;;;;;;;;;;;20.50;46.00;;;;;;5055630;28;19920;-56
2022/04/14 07:53:16;;;;;;;;;;;20.50;46.00;;;;;;5054049;28;19931;-52
2022/04/14 07:55:43;;;;;;;;;;;20.50;46.00;;;;;;5081094;28;19924;-48
2022/04/14 07:58:10;;;;;;;;;;;20.50;46.00;;;;;;5066798;28;19971;-52
2022/04/14 08:00:39;;;;;;;;;;;20.50;45.90;;;;;;5067299;28;19927;-54
2022/04/14 08:03:06;;;;;;;;;;;20.50;46.00;;;;;;5064607;28;19933;-53
2022/04/14 08:05:36;;;;;;;;;;;20.50;45.90;;;;;;5068295;28;19924;-52
2022/04/14 08:08:02;;;;;;;;;;;20.50;45.90;;;;;;5082454;28;19969;-53
2022/04/14 08:10:29;;;;;;;;;;;20.50;46.00;;;;;;5077619;28;20011;-57
2022/04/14 08:12:56;;;;;;;;;;;20.50;46.00;;;;;;5066894;28;19929;-53
2022/04/14 08:15:23;;;;;;;;;;;20.50;46.00;;;;;;5084550;28;19951;-52
2022/04/14 08:17:51;;;;;;;;;;;20.50;46.00;;;;;;5079256;28;19932;-56
2022/04/14 08:20:18;;;;;;;;;;;20.50;45.90;;;;;;5066932;28;20015;-52
2022/04/14 08:22:45;;;;;;;;;;;20.50;46.00;;;;;;5075198;28;20468;-49
2022/04/14 08:25:12;;;;;;;;;;;20.50;46.00;;;;;;5083323;28;19940;-52
2022/04/14 08:27:39;;;;;;;;;;;20.50;46.00;;;;;;5056236;28;19935;-56
2022/04/14 08:30:07;;;;;;;;;;;20.50;45.90;;;;;;5053977;28;20357;-52
2022/04/14 08:32:35;;;;;;;;;;;20.50;46.00;;;;;;5078625;28;20006;-58
2022/04/14 08:35:03;;;;;;;;;;;20.50;46.00;;;;;;5058106;28;19982;-55
2022/04/14 08:37:30;;;;;;;;;;;20.50;46.00;;;;;;5066181;28;19932;-51
2022/04/14 08:39:57;;;;;;;;;;;20.50;45.90;;;;;;5065435;28;19925;-53
2022/04/14 08:42:25;;;;;;;;;;;20.50;45.90;;;;;;5058092;28;20216;-53
2022/04/14 08:44:54;;;;;;;;;;;20.50;45.90;;;;;;5063276;28;20017;-55
2022/04/14 08:47:21;;;;;;;;;;;20.50;45.90;;;;;;5065578;28;19951;-57
2022/04/14 08:49:48;;;;;;;;;;;20.50;46.00;;;;;;5066261;28;20323;-52
2022/04/14 08:52:16;;;;;;;;;;;20.50;45.90;;;;;;5061222;28;20431;-50
2022/04/14 08:54:44;;;;;;;;;;;20.50;45.90;;;;;;5065229;28;19930;-50
2022/04/14 08:57:13;;;;;;;;;;;20.50;45.90;;;;;;5082737;28;19982;-50
2022/04/14 08:59:40;;;;;;;;;;;20.50;45.90;;;;;;5065732;28;19921;-52
2022/04/14 09:02:07;;;;;;;;;;;20.50;45.90;;;;;;5065478;28;19921;-55
2022/04/14 09:04:38;;;;;;;;;;;20.50;45.90;;;;;;5062397;28;19928;-53
2022/04/14 09:07:05;;;;;;;;;;;20.50;46.00;;;;;;5060129;28;20251;-56
2022/04/14 09:09:34;;;;;;;;;;;20.50;46.00;;;;;;5070116;28;19921;-53
2022/04/14 09:12:00;;;;;;;;;;;20.50;46.00;;;;;;5079080;28;20011;-54
2022/04/14 09:14:28;;;;;;;;;;;20.50;46.00;;;;;;5062920;28;19939;-52
2022/04/14 09:16:54;;;;;;;;;;;20.50;46.00;;;;;;5084550;28;20029;-56
2022/04/14 09:19:22;;;;;;;;;;;20.50;46.00;;;;;;5084709;28;19921;-53
2022/04/14 09:21:58;;;;;;;;;;;20.50;46.00;;;;;;5066360;28;19932;-54
2022/04/14 09:24:39;;;;;;;;;;;20.50;45.90;;;;;;5069340;28;19940;-55
2022/04/14 09:27:06;;;;;;;;;;;20.50;45.90;;;;;;5080010;28;19928;-57
2022/04/14 09:29:33;;;;;;;;;;;20.50;46.00;;;;;;5066518;28;19924;-54
2022/04/14 09:32:00;;;;;;;;;;;20.50;46.00;;;;;;5083565;28;20013;-57
2022/04/14 09:34:42;;;;;;;;;;;20.50;46.00;;;;;;5061783;28;19966;-54
2022/04/14 09:37:09;;;;;;;;;;;20.50;46.00;;;;;;5088502;28;20304;-55
2022/04/14 09:39:50;;;;;;;;;;;20.50;46.00;;;;;;5087359;28;19975;-53
2022/04/14 09:42:19;;;;;;;;;;;20.50;46.00;;;;;;5058928;28;19924;-56
2022/04/14 09:44:46;;;;;;;;;;;20.50;46.00;;;;;;5064702;28;19994;-52
2022/04/14 09:47:12;;;;;;;;;;;20.50;46.00;;;;;;5080514;28;20027;-53
2022/04/14 09:49:40;;;;;;;;;;;20.50;45.90;;;;;;5069163;28;20509;-51
2022/04/14 09:52:07;;;;;;;;;;;20.50;45.90;;;;;;5085342;28;19921;-53
2022/04/14 09:54:34;;;;;;;;;;;20.50;45.90;;;;;;5056661;28;20375;-51
2022/04/14 09:57:01;;;;;;;;;;;20.50;45.80;;;;;;5058028;28;19955;-56
2022/04/14 09:59:29;;;;;;;;;;;20.50;45.80;;;;;;5057328;28;20369;-51
2022/04/14 10:02:08;;;;;;;;;;;20.50;45.70;;;;;;5086527;28;19982;-51
2022/04/14 10:04:35;;;;;;;;;;;20.50;45.70;;;;;;5064038;28;20065;-51
2022/04/14 10:07:03;;;;;;;;;;;20.50;45.70;;;;;;5061280;28;19920;-53
2022/04/14 10:09:30;;;;;;;;;;;20.50;45.70;;;;;;5071583;28;19920;-51
2022/04/14 10:11:57;;;;;;;;;;;20.50;45.70;;;;;;5069974;28;19931;-55
2022/04/14 10:14:25;;;;;;;;;;;20.50;45.70;;;;;;5071765;28;19932;-54
2022/04/14 10:16:53;;;;;;;;;;;20.50;45.60;;;;;;5058105;28;19934;-55
2022/04/14 10:19:20;;;;;;;;;;;20.50;45.60;;;;;;5086290;28;19924;-54
2022/04/14 10:21:50;;;;;;;;;;;20.50;45.60;;;;;;5065772;28;19978;-53
2022/04/14 10:24:19;;;;;;;;;;;20.50;45.60;;;;;;5064217;28;19926;-52
2022/04/14 10:26:49;;;;;;;;;;;20.50;45.50;;;;;;5062941;28;19935;-54
2022/04/14 10:29:19;;;;;;;;;;;20.50;45.50;;;;;;5066657;28;19963;-51
2022/04/14 10:31:49;;;;;;;;;;;20.50;46.10;;;;;;5054144;28;19924;-52
2022/04/14 10:34:17;;;;;;;;;;;20.50;45.50;;;;;;5064218;28;19964;-56
2022/04/14 10:36:44;;;;;;;;;;;20.50;45.50;;;;;;5042890;28;19979;-54
2022/04/14 10:39:13;;;;;;;;;;;20.50;45.50;;;;;;5061846;28;19967;-54
2022/04/14 10:41:40;;;;;;;;;;;20.50;45.40;;;;;;5058574;28;19955;-53
2022/04/14 10:44:10;;;;;;;;;;;20.50;45.40;;;;;;5066988;28;19959;-54
2022/04/14 10:46:39;;;;;;;;;;;20.50;45.40;;;;;;5071540;28;19971;-51
2022/04/14 10:49:13;;;;;;;;;;;20.50;45.40;;;;;;5088020;28;19936;-52
2022/04/14 10:51:41;;;;;;;;;;;20.50;45.40;;;;;;5060259;28;19966;-55
2022/04/14 10:54:09;;;;;;;;;;;20.50;45.40;;;;;;5066085;28;19921;-54
2022/04/14 10:56:45;;;;;;;;;;;20.50;45.40;;;;;;5065734;28;19930;-51
2022/04/14 10:59:12;;;;;;;;;;;20.50;45.40;;;;;;5068941;28;19924;-54
2022/04/14 11:02:02;;;;;;;;;;;20.50;45.40;;;;;;5059184;28;19928;-55
2022/04/14 11:04:30;;;;;;;;;;;20.50;45.40;;;;;;5064923;28;19926;-52
2022/04/14 11:06:59;;;;;;;;;;;20.50;45.40;;;;;;5066322;28;19929;-50
2022/04/14 11:09:48;;;;;;;;;;;20.50;45.40;;;;;;5079619;28;20329;-48
2022/04/14 11:12:16;;;;;;;;;;;20.50;45.40;;;;;;5082198;28;19920;-56
2022/04/14 11:14:53;;;;;;;;;;;20.50;45.30;;;;;;5063916;28;19986;-53
2022/04/14 11:17:40;;;;;;;;;;;20.50;45.30;;;;;;5070212;28;20111;-55
2022/04/14 11:20:27;;;;;;;;;;;20.50;45.30;;;;;;5059692;28;20289;-53
2022/04/14 11:23:05;;;;;;;;;;;20.50;45.30;;;;;;5058329;28;19920;-49
2022/04/14 11:25:48;;;;;;;;;;;20.50;45.20;;;;;;5082087;28;19943;-53
2022/04/14 11:28:18;;;;;;;;;;;20.50;45.20;;;;;;5082874;28;19951;-52
2022/04/14 11:30:45;;;;;;;;;;;20.50;45.30;;;;;;5080078;28;19927;-53
2022/04/14 11:33:12;;;;;;;;;;;20.50;45.20;;;;;;5069734;28;19927;-51
2022/04/14 11:35:41;;;;;;;;;;;20.50;45.30;;;;;;5060737;28;19921;-55
2022/04/14 11:38:12;;;;;;;;;;;20.50;45.20;;;;;;5081237;28;20485;-54
2022/04/14 11:40:39;;;;;;;;;;;20.50;45.20;;;;;;5065720;28;19929;-51
2022/04/14 11:43:08;;;;;;;;;;;20.50;45.20;;;;;;5069730;28;19924;-50
2022/04/14 11:45:35;;;;;;;;;;;20.50;45.20;;;;;;5055379;28;19927;-56
2022/04/14 11:48:03;;;;;;;;;;;20.50;45.20;;;;;;5084291;28;19924;-54
2022/04/14 11:50:32;;;;;;;;;;;20.50;45.10;;;;;;5082251;28;19998;-54
2022/04/14 11:52:59;;;;;;;;;;;20.50;45.10;;;;;;5078805;28;19925;-50
2022/04/14 11:55:38;;;;;;;;;;;20.50;45.10;;;;;;5060062;28;19921;-52
2022/04/14 11:58:05;;;;;;;;;;;20.50;45.10;;;;;;5081576;28;19924;-55
2022/04/14 12:00:34;;;;;;;;;;;20.50;45.10;;;;;;5067602;28;19920;-54
2022/04/14 12:03:01;;;;;;;;;;;20.50;45.10;;;;;;5056101;28;19921;-53
2022/04/14 12:05:28;;;;;;;;;;;20.50;45.00;;;;;;5057132;28;19924;-60
2022/04/14 12:08:05;;;;;;;;;;;20.50;45.00;;;;;;5063021;28;20127;-55
2022/04/14 12:10:32;;;;;;;;;;;20.50;45.00;;;;;;5070171;28;19920;-54
2022/04/14 12:13:07;;;;;;;;;;;20.50;45.00;;;;;;5063191;28;19924;-54
2022/04/14 12:15:34;;;;;;;;;;;20.50;44.90;;;;;;5085149;28;19973;-55
2022/04/14 12:18:05;;;;;;;;;;;20.50;45.00;;;;;;5060232;28;19921;-57
2022/04/14 12:20:34;;;;;;;;;;;20.50;45.00;;;;;;5081677;28;19939;-50
2022/04/14 12:23:01;;;;;;;;;;;20.50;45.00;;;;;;5056770;28;20043;-53
2022/04/14 12:25:28;;;;;;;;;;;20.50;44.90;;;;;;5057266;28;19932;-55
2022/04/14 12:27:57;;;;;;;;;;;20.50;45.00;;;;;;5064932;28;19928;-53
2022/04/14 12:30:25;;;;;;;;;;;20.50;44.90;;;;;;5064972;28;19924;-57
2022/04/14 12:32:59;;;;;;;;;;;20.50;44.90;;;;;;5053495;28;19921;-58
2022/04/14 12:35:32;;;;;;;;;;;20.50;44.90;;;;;;5062467;28;19920;-60
2022/04/14 12:38:11;;;;;;;;;;;20.50;44.90;;;;;;5079434;28;20016;-55
2022/04/14 12:40:37;;;;;;;;;;;20.50;44.90;;;;;;5071276;28;20015;-53
2022/04/14 12:43:04;;;;;;;;;;;20.50;44.90;;;;;;5070672;28;19952;-54
2022/04/14 12:45:40;;;;;;;;;;;20.50;44.80;;;;;;5084841;28;19920;-50
2022/04/14 12:48:08;;;;;;;;;;;20.60;44.90;;;;;;5077108;28;19939;-51
2022/04/14 12:50:35;;;;;;;;;;;20.50;44.80;;;;;;5081248;28;20357;-53
2022/04/14 12:53:02;;;;;;;;;;;20.50;44.80;;;;;;5075844;28;20312;-51
2022/04/14 12:55:31;;;;;;;;;;;20.60;44.90;;;;;;5056770;28;19920;-50
2022/04/14 12:58:10;;;;;;;;;;;20.50;44.80;;;;;;5054192;28;20366;-54
2022/04/14 13:00:39;;;;;;;;;;;20.50;44.80;;;;;;5072597;28;19950;-50
2022/04/14 13:03:13;;;;;;;;;;;20.50;44.80;;;;;;5068749;28;19928;-52
2022/04/14 13:05:40;;;;;;;;;;;20.50;44.80;;;;;;5078930;28;19921;-52
2022/04/14 13:08:07;;;;;;;;;;;20.50;44.70;;;;;;5065497;28;19924;-59
2022/04/14 13:10:35;;;;;;;;;;;20.50;44.80;;;;;;5072282;28;19920;-54
2022/04/14 13:13:02;;;;;;;;;;;20.50;44.80;;;;;;5065353;28;20308;-53
2022/04/14 13:15:29;;;;;;;;;;;20.50;44.70;;;;;;5070298;28;19927;-56
2022/04/14 13:17:57;;;;;;;;;;;20.50;44.70;;;;;;5071614;28;19990;-53
2022/04/14 13:20:32;;;;;;;;;;;20.50;44.70;;;;;;5065480;28;19929;-59
2022/04/14 13:22:59;;;;;;;;;;;20.50;44.70;;;;;;5069220;28;19927;-55
2022/04/14 13:25:26;;;;;;;;;;;20.50;44.60;;;;;;5088215;28;19927;-52
2022/04/14 13:27:55;;;;;;;;;;;20.50;44.60;;;;;;5088041;28;20385;-55
2022/04/14 13:30:27;;;;;;;;;;;20.50;44.60;;;;;;5063057;28;19992;-55
2022/04/14 13:32:53;;;;;;;;;;;20.50;44.60;;;;;;5088233;28;19924;-56
2022/04/14 13:35:22;;;;;;;;;;;20.50;44.50;;;;;;5058198;28;19993;-55
2022/04/14 13:37:48;;;;;;;;;;;20.50;44.50;;;;;;5068020;28;19932;-52
2022/04/14 13:40:15;;;;;;;;;;;20.50;45.10;;;;;;5070606;28;20348;-50
2022/04/14 13:42:43;;;;;;;;;;;20.50;44.50;;;;;;5083750;28;19944;-52
2022/04/14 13:45:10;;;;;;;;;;;20.50;44.50;;;;;;5071665;28;19932;-53
2022/04/14 13:47:39;;;;;;;;;;;20.50;44.50;;;;;;5062027;28;19927;-52
2022/04/14 13:50:07;;;;;;;;;;;20.50;44.50;;;;;;5073624;28;19995;-53
2022/04/14 13:52:36;;;;;;;;;;;20.50;44.50;;;;;;5071536;28;19921;-56
2022/04/14 13:55:03;;;;;;;;;;;20.50;44.60;;;;;;5084785;28;19925;-51
2022/04/14 13:57:29;;;;;;;;;;;20.50;44.50;;;;;;5071264;28;19921;-53
2022/04/14 13:59:56;;;;;;;;;;;20.50;44.50;;;;;;5073991;28;20329;-50
2022/04/14 14:02:23;;;;;;;;;;;20.50;44.50;;;;;;5066140;28;20003;-57
2022/04/14 14:04:50;;;;;;;;;;;20.50;44.50;;;;;;5064946;28;20281;-54
2022/04/14 14:07:17;;;;;;;;;;;20.50;44.50;;;;;;5070042;28;20035;-53
2022/04/14 14:09:45;;;;;;;;;;;20.50;44.50;;;;;;5084850;28;19931;-51
2022/04/14 14:12:12;;;;;;;;;;;20.50;44.50;;;;;;5071701;28;19971;-51
2022/04/14 14:14:39;;;;;;;;;;;20.50;44.50;;;;;;5088662;28;19970;-53
2022/04/14 14:17:06;;;;;;;;;;;20.50;44.50;;;;;;5044668;28;19921;-56
2022/04/14 14:19:33;;;;;;;;;;;20.50;44.50;;;;;;5085304;28;19970;-50
2022/04/14 14:22:01;;;;;;;;;;;20.50;44.50;;;;;;5070819;28;19963;-52
2022/04/14 14:24:28;;;;;;;;;;;20.50;44.60;;;;;;5067878;28;20373;-51